Time;durP1;ratioP1;P1;durP2;ratioP2;P2;SDS_P1;SDS_P2;PMS_P1;PMS_P2;Temp;Humidity;BMP_temperature;BMP_pressure;BME280_temperature;BME280_humidity;BME280_pressure;Samples;Min_cycle;Max_cycle;Signal;HPM_P1;HPM_P2
2023/08/08 00:02:57;;;;;;;1.30;1.10;;;;;;;26.15;43.46;99972.34;10374760;28;97675;-80
2023/08/08 00:08:02;;;;;;;3.55;1.30;;;;;;;26.08;44.01;99968.63;10373270;28;96957;-79
2023/08/08 00:13:07;;;;;;;2.03;1.10;;;;;;;26.10;43.95;99963.06;10374160;28;97172;-79
2023/08/08 00:18:11;;;;;;;2.08;1.20;;;;;;;25.97;44.17;99966.22;10373951;28;96864;-80
2023/08/08 00:23:17;;;;;;;1.67;1.25;;;;;;;25.92;44.11;99955.94;10374077;28;97376;-79
2023/08/08 00:28:22;;;;;;;1.65;1.08;;;;;;;25.74;45.82;99960.59;10373233;28;96776;-80
2023/08/08 00:33:27;;;;;;;1.60;1.17;;;;;;;25.59;46.67;99951.44;10373529;28;96775;-80
2023/08/08 00:38:30;;;;;;;2.47;1.60;;;;;;;25.31;47.80;99954.53;10395920;28;96889;-79
2023/08/08 00:43:41;;;;;;;1.87;1.07;;;;;;;25.06;49.81;99950.88;10415562;27;97240;-80
2023/08/08 00:48:46;;;;;;;2.30;1.40;;;;;;;25.10;49.02;99956.78;10373141;27;96643;-79
2023/08/08 00:53:50;;;;;;;2.33;1.38;;;;;;;25.10;48.55;99952.25;10372881;28;97680;-80
2023/08/08 00:58:53;;;;;;;2.15;1.40;;;;;;;25.00;48.75;99961.44;10371900;28;97925;-80
2023/08/08 01:04:01;;;;;;;2.43;1.70;;;;;;;25.04;49.08;99954.72;10373144;28;96758;-79
2023/08/08 01:09:15;;;;;;;1.92;1.38;;;;;;;25.03;48.61;99953.03;10372290;28;96701;-79
2023/08/08 01:14:19;;;;;;;3.80;1.20;;;;;;;25.09;48.12;99950.53;10372307;28;96622;-80
2023/08/08 01:19:28;;;;;;;2.30;1.20;;;;;;;25.08;48.12;99939.94;10371956;28;97235;-79
2023/08/08 01:24:36;;;;;;;2.00;1.10;;;;;;;25.35;46.23;99940.56;10371815;28;96577;-80
2023/08/08 01:29:44;;;;;;;2.30;1.38;;;;;;;25.58;44.95;99933.59;10371938;28;97641;-80
2023/08/08 01:34:48;;;;;;;1.92;1.20;;;;;;;25.84;43.57;99936.22;10372669;28;97376;-80
2023/08/08 01:39:57;;;;;;;2.65;1.17;;;;;;;26.20;41.16;99940.31;10412722;28;96568;-79
2023/08/08 01:45:00;;;;;;;2.20;1.10;;;;;;;26.51;39.60;99927.88;10412626;27;97912;-80
2023/08/08 01:50:10;;;;;;;2.25;1.40;;;;;;;26.73;38.09;99935.25;10411105;27;96673;-80
2023/08/08 01:55:17;;;;;;;2.75;1.40;;;;;;;26.83;37.79;99937.78;10411995;28;97893;-80
2023/08/08 02:00:21;;;;;;;2.58;1.10;;;;;;;26.98;37.23;99938.75;10419143;27;97838;-80
2023/08/08 02:05:25;;;;;;;1.40;1.00;;;;;;;27.06;37.03;99943.34;10420157;27;97364;-80
2023/08/08 02:10:30;;;;;;;1.55;0.90;;;;;;;27.07;36.58;99945.00;10418896;27;97383;-80
2023/08/08 02:15:33;;;;;;;1.27;0.85;;;;;;;27.08;36.23;99939.44;10419857;27;97377;-80
2023/08/08 02:20:36;;;;;;;1.43;1.10;;;;;;;27.10;36.31;99944.66;10419158;27;96764;-80
2023/08/08 02:25:41;;;;;;;2.43;1.20;;;;;;;27.10;36.14;99929.31;10419979;27;96598;-80
2023/08/08 02:30:46;;;;;;;1.77;1.00;;;;;;;27.07;35.79;99934.22;10418333;27;96708;-79
2023/08/08 02:35:49;;;;;;;1.20;0.90;;;;;;;27.04;35.95;99942.66;10419060;27;97547;-80
2023/08/08 02:40:54;;;;;;;1.03;0.83;;;;;;;27.07;35.83;99951.28;10417718;28;96828;-79
2023/08/08 02:46:07;;;;;;;2.08;1.13;;;;;;;27.05;35.64;99941.63;10390221;28;96740;-79
2023/08/08 02:51:11;;;;;;;1.55;0.90;;;;;;;27.07;35.02;99931.50;10376913;28;96790;-80
2023/08/08 02:56:15;;;;;;;1.87;0.97;;;;;;;27.03;34.78;99938.28;10377059;28;98008;-80
2023/08/08 03:01:19;;;;;;;1.35;1.00;;;;;;;26.98;34.69;99930.66;10377102;28;97200;-80
2023/08/08 03:06:22;;;;;;;1.17;0.90;;;;;;;26.95;35.24;99931.88;10376698;28;97574;-80
2023/08/08 03:11:27;;;;;;;2.23;1.13;;;;;;;26.87;35.15;99921.06;10374581;28;96709;-79
2023/08/08 03:16:30;;;;;;;1.55;0.95;;;;;;;26.79;35.38;99931.03;10376463;28;96806;-80
2023/08/08 03:21:33;;;;;;;1.92;1.13;;;;;;;26.76;35.20;99936.78;10376188;28;96604;-80
2023/08/08 03:26:41;;;;;;;2.22;1.02;;;;;;;26.70;35.40;99927.50;10375783;28;97019;-79
2023/08/08 03:31:44;;;;;;;1.15;0.80;;;;;;;26.67;35.09;99935.97;10374837;28;96592;-79
2023/08/08 03:36:47;;;;;;;1.60;1.10;;;;;;;26.69;34.79;99935.78;10408483;27;96705;-79
2023/08/08 03:41:52;;;;;;;2.60;1.10;;;;;;;26.72;34.86;99935.44;10458904;27;96743;-80
2023/08/08 03:47:00;;;;;;;2.15;1.40;;;;;;;26.63;35.53;99942.69;10457957;27;96605;-79
2023/08/08 03:52:19;;;;;;;2.03;0.93;;;;;;;26.61;35.04;99946.59;10432131;27;96623;-80
2023/08/08 03:57:28;;;;;;;1.47;0.90;;;;;;;26.59;35.04;99944.03;10374615;28;96884;-79
2023/08/08 04:02:32;;;;;;;2.88;1.02;;;;;;;26.63;34.94;99942.69;10374596;28;96870;-80
2023/08/08 04:07:35;;;;;;;1.75;1.10;;;;;;;26.60;35.09;99937.66;10374775;28;96737;-80
2023/08/08 04:12:40;;;;;;;2.85;1.23;;;;;;;26.58;34.66;99938.81;10375202;28;97017;-79
2023/08/08 04:17:43;;;;;;;1.05;0.70;;;;;;;26.54;34.78;99938.31;10373749;28;96641;-80
2023/08/08 04:22:47;;;;;;;1.60;0.77;;;;;;;26.53;34.93;99950.13;10372674;28;97058;-79
2023/08/08 04:27:51;;;;;;;1.70;0.73;;;;;;;26.50;35.00;99944.22;10374286;28;96738;-80
2023/08/08 04:32:54;;;;;;;1.50;0.80;;;;;;;26.51;34.65;99949.47;10373907;28;97040;-79
2023/08/08 04:37:59;;;;;;;2.70;1.10;;;;;;;26.53;34.61;99960.09;10399952;28;96807;-80
2023/08/08 04:43:04;;;;;;;1.80;0.98;;;;;;;26.51;34.88;99964.81;10414046;27;97401;-79
2023/08/08 04:48:07;;;;;;;1.45;1.00;;;;;;;26.42;34.70;99973.94;10413705;27;96772;-79
2023/08/08 04:53:11;;;;;;;0.98;0.80;;;;;;;26.41;34.79;99970.38;10414395;27;96654;-79
2023/08/08 04:58:18;;;;;;;1.70;1.00;;;;;;;26.39;35.17;99974.25;10415350;27;97799;-80
2023/08/08 05:03:21;;;;;;;1.45;0.90;;;;;;;26.33;34.70;99967.66;10413127;28;96805;-80
2023/08/08 05:08:25;;;;;;;2.10;0.90;;;;;;;26.31;34.90;99966.97;10414011;27;97048;-80
2023/08/08 05:13:33;;;;;;;1.20;0.90;;;;;;;26.26;34.92;99977.44;10412939;27;96645;-80
2023/08/08 05:18:39;;;;;;;1.52;1.00;;;;;;;26.30;35.07;99977.94;10412567;28;97914;-79
2023/08/08 05:23:46;;;;;;;1.10;0.77;;;;;;;26.27;34.92;99973.72;10413647;27;96631;-80
2023/08/08 05:28:53;;;;;;;1.60;1.10;;;;;;;26.25;35.01;99977.56;10413474;27;97247;-79
2023/08/08 05:33:57;;;;;;;1.45;0.80;;;;;;;26.21;35.30;99974.38;10411769;27;97340;-80
2023/08/08 05:39:00;;;;;;;2.10;1.00;;;;;;;26.18;35.51;99976.56;10412850;27;96816;-80
2023/08/08 05:44:07;;;;;;;1.40;0.97;;;;;;;26.23;35.14;99968.81;10413086;28;96544;-80
2023/08/08 05:49:10;;;;;;;1.42;0.90;;;;;;;26.22;35.43;99967.97;10412917;27;96881;-80
2023/08/08 05:54:13;;;;;;;1.30;0.73;;;;;;;26.28;35.01;99969.16;10375854;28;97436;-80
2023/08/08 05:59:18;;;;;;;0.83;0.63;;;;;;;26.39;35.04;99974.25;10371368;28;97726;-80
2023/08/08 06:04:21;;;;;;;1.10;0.80;;;;;;;26.46;34.72;99962.63;10370365;28;97563;-80
2023/08/08 06:09:25;;;;;;;1.60;1.00;;;;;;;26.57;34.75;99974.94;10371436;28;96592;-79
2023/08/08 06:14:31;;;;;;;0.85;0.80;;;;;;;26.56;34.94;99971.38;10370611;28;97846;-79
2023/08/08 06:19:36;;;;;;;1.65;0.98;;;;;;;26.72;34.86;99975.94;10370523;28;96542;-80
2023/08/08 06:24:44;;;;;;;2.17;0.82;;;;;;;26.75;34.54;99984.53;10370857;28;96850;-79
2023/08/08 06:29:49;;;;;;;1.17;0.80;;;;;;;26.86;34.69;99988.75;10370249;28;96731;-80
2023/08/08 06:34:52;;;;;;;1.15;0.75;;;;;;;26.92;34.34;99988.91;10370677;28;96616;-80
2023/08/08 06:39:56;;;;;;;3.80;0.88;;;;;;;27.01;34.36;99987.88;10412603;27;96634;-79
2023/08/08 06:45:03;;;;;;;1.73;1.05;;;;;;;27.13;34.30;99990.25;10381402;27;97071;-79
2023/08/08 06:50:09;;;;;;;2.15;0.90;;;;;;;27.27;33.87;100005.78;10376257;28;96908;-80
2023/08/08 06:55:13;;;;;;;1.40;1.00;;;;;;;27.46;33.57;99997.28;10375981;28;96652;-79
2023/08/08 07:00:18;;;;;;;0.97;0.87;;;;;;;27.55;33.87;99986.22;10377300;28;96735;-80
2023/08/08 07:05:22;;;;;;;1.45;0.90;;;;;;;27.72;33.54;100004.09;10376948;28;97511;-80
2023/08/08 07:10:31;;;;;;;2.35;0.80;;;;;;;27.95;33.60;100006.88;10376254;28;96680;-79
2023/08/08 07:15:38;;;;;;;2.45;0.90;;;;;;;28.13;32.80;100007.44;10376705;28;97691;-80
2023/08/08 07:20:42;;;;;;;1.48;1.00;;;;;;;28.28;33.05;100013.78;10461408;22;97691;-79
2023/08/08 07:25:47;;;;;;;1.90;0.85;;;;;;;28.45;33.08;100018.09;10459412;27;96571;-80
2023/08/08 07:30:56;;;;;;;1.90;0.93;;;;;;;28.62;32.47;100013.41;10460153;27;96699;-80
2023/08/08 07:36:05;;;;;;;1.52;0.68;;;;;;;28.72;32.53;100019.41;10397931;27;96757;-79
2023/08/08 07:41:15;;;;;;;1.05;0.70;;;;;;;28.88;32.59;100022.81;10417567;28;97060;-80
2023/08/08 07:46:22;;;;;;;2.75;0.93;;;;;;;28.97;31.60;100024.44;10415623;28;97610;-79
2023/08/08 07:51:26;;;;;;;5.47;1.30;;;;;;;29.17;32.14;100033.72;10415940;28;96988;-80
2023/08/08 07:56:34;;;;;;;1.05;0.85;;;;;;;29.29;32.11;100033.28;10415674;28;97071;-80
2023/08/08 08:01:42;;;;;;;1.17;0.80;;;;;;;29.42;31.03;100039.75;10416253;28;96727;-80
2023/08/08 08:06:45;;;;;;;1.08;0.98;;;;;;;29.46;30.85;100032.94;10415237;28;96659;-80
2023/08/08 08:11:59;;;;;;;1.48;0.90;;;;;;;29.61;30.33;100036.50;10416177;28;96703;-79
2023/08/08 08:17:23;;;;;;;1.08;0.70;;;;;;;29.69;30.00;100039.16;10415555;28;98012;-80
2023/08/08 08:22:31;;;;;;;2.05;0.80;;;;;;;29.77;29.45;100040.91;10415493;27;96788;-79
2023/08/08 08:27:35;;;;;;;0.93;0.73;;;;;;;30.03;29.51;100038.53;10375285;28;97215;-80
2023/08/08 08:32:49;;;;;;;1.48;0.80;;;;;;;30.15;29.06;100045.19;10373947;28;96738;-80
2023/08/08 08:37:53;;;;;;;1.60;0.90;;;;;;;30.26;28.72;100050.13;10380492;28;96868;-80
2023/08/08 08:43:05;;;;;;;0.52;0.40;;;;;;;30.31;28.29;100047.66;10388386;28;96796;-80
2023/08/08 08:48:13;;;;;;;1.98;0.82;;;;;;;30.55;27.73;100036.44;10372852;28;96883;-79
2023/08/08 08:53:24;;;;;;;1.27;0.80;;;;;;;30.69;27.72;100048.31;10372835;28;96856;-80
2023/08/08 08:58:30;;;;;;;1.45;0.77;;;;;;;30.75;27.43;100048.38;10373562;28;96680;-79
2023/08/08 09:03:35;;;;;;;1.77;1.00;;;;;;;30.75;27.36;100042.94;10372996;28;96662;-80
2023/08/08 09:08:39;;;;;;;1.30;0.65;;;;;;;31.09;27.49;100053.06;10372424;28;96625;-79
2023/08/08 09:13:42;;;;;;;;;;;;;;;31.34;27.25;100048.88;10373843;28;96678;-80
2023/08/08 09:18:49;;;;;;;1.13;0.60;;;;;;;31.42;26.63;100053.34;10394571;28;96715;-80
2023/08/08 09:23:56;;;;;;;1.73;0.60;;;;;;;31.46;26.90;100039.13;10413757;28;96804;-80
2023/08/08 09:29:02;;;;;;;1.48;0.82;;;;;;;31.72;26.39;100047.44;10412678;28;96651;-80
2023/08/08 09:34:07;;;;;;;1.63;0.95;;;;;;;31.94;26.71;100046.38;10386540;28;96624;-80
2023/08/08 09:39:12;;;;;;;1.00;0.60;;;;;;;32.03;26.51;100038.84;10371551;28;96812;-80
2023/08/08 09:44:16;;;;;;;1.75;1.27;;;;;;;32.43;26.58;100055.16;10371573;28;96919;-80
2023/08/08 09:49:23;;;;;;;2.20;0.90;;;;;;;32.56;26.12;100050.78;10371661;28;96907;-80
2023/08/08 09:54:29;;;;;;;1.52;0.88;;;;;;;32.75;25.17;100039.91;10371477;28;96699;-80
2023/08/08 09:59:33;;;;;;;1.60;0.65;;;;;;;33.01;24.87;100047.28;10371255;28;96791;-80
2023/08/08 10:04:42;;;;;;;1.67;1.08;;;;;;;32.93;25.22;100051.06;10371328;28;97029;-80
2023/08/08 10:09:45;;;;;;;1.95;0.63;;;;;;;33.08;24.80;100045.41;10370930;28;97021;-80
2023/08/08 10:14:48;;;;;;;1.48;1.00;;;;;;;33.28;24.90;100043.50;10370903;28;96645;-80
2023/08/08 10:19:56;;;;;;;1.20;0.70;;;;;;;33.32;24.52;100036.56;10412838;27;96804;-80
2023/08/08 10:25:00;;;;;;;1.00;0.50;;;;;;;33.48;24.90;100033.44;10392660;28;96813;-80
2023/08/08 10:30:06;;;;;;;1.63;0.70;;;;;;;33.59;24.20;100034.69;10377327;28;96767;-80
2023/08/08 10:35:17;;;;;;;0.85;0.63;;;;;;;33.66;24.70;100024.56;10377686;28;97251;-80
2023/08/08 10:40:20;;;;;;;1.50;0.88;;;;;;;33.66;24.36;100019.94;10377987;28;96646;-80
2023/08/08 10:45:30;;;;;;;2.45;0.82;;;;;;;33.77;23.98;100018.44;10377614;28;96780;-80
2023/08/08 10:50:40;;;;;;;1.02;0.65;;;;;;;33.96;23.36;99999.28;10376821;28;97824;-80
2023/08/08 10:55:49;;;;;;;1.40;0.95;;;;;;;34.28;24.44;100001.00;10377759;28;96808;-80
2023/08/08 11:00:54;;;;;;;1.83;1.15;;;;;;;34.37;23.65;99994.22;10376830;28;96656;-81
2023/08/08 11:06:04;;;;;;;1.77;0.77;;;;;;;34.54;23.62;99986.38;10376602;28;96669;-80
2023/08/08 11:11:09;;;;;;;1.30;0.90;;;;;;;34.50;23.20;99988.72;10375315;28;96551;-80
2023/08/08 11:16:12;;;;;;;1.50;1.05;;;;;;;34.84;23.43;99981.09;10384993;28;96888;-81
2023/08/08 11:21:17;;;;;;;1.08;0.75;;;;;;;34.98;23.26;99983.50;10418235;28;96878;-81
2023/08/08 11:26:27;;;;;;;1.08;0.75;;;;;;;35.03;22.88;99983.66;10417612;28;96718;-80
2023/08/08 11:31:31;;;;;;;1.45;0.85;;;;;;;35.28;23.03;99961.75;10415229;27;96507;-80
2023/08/08 11:36:37;;;;;;;1.08;0.85;;;;;;;35.32;22.79;99963.78;10417273;28;98081;-80
2023/08/08 11:41:42;;;;;;;1.83;0.85;;;;;;;35.52;22.86;99950.75;10416726;28;97062;-80
2023/08/08 11:46:46;;;;;;;2.08;0.98;;;;;;;35.45;22.29;99949.16;10417519;28;96803;-79
2023/08/08 11:51:59;;;;;;;1.08;0.70;;;;;;;35.79;22.91;99948.50;10375250;28;97171;-80
2023/08/08 11:57:05;;;;;;;;;;;;;;;35.92;22.72;99939.31;10375236;28;96707;-80
2023/08/08 12:02:08;;;;;;;;;;;;;;;35.92;21.75;99931.94;10374286;28;96640;-80
2023/08/08 12:07:13;;;;;;;1.25;0.85;;;;;;;36.25;21.70;99929.56;10374640;28;96788;-80
2023/08/08 12:12:20;;;;;;;1.63;0.80;;;;;;;36.54;22.13;99930.63;10374721;28;96649;-80
2023/08/08 12:17:24;;;;;;;1.27;0.80;;;;;;;36.52;21.66;99924.53;10392585;28;96818;-81
2023/08/08 12:22:33;;;;;;;1.70;0.93;;;;;;;36.78;21.57;99917.78;10401584;28;97703;-81
2023/08/08 12:27:38;;;;;;;2.03;0.93;;;;;;;36.83;21.80;99912.41;10374039;28;96841;-81
2023/08/08 12:32:44;;;;;;;1.30;0.70;;;;;;;37.19;22.54;99903.94;10373456;28;97215;-82
2023/08/08 12:37:54;;;;;;;2.78;1.10;;;;;;;37.02;21.55;99903.81;10374247;28;96600;-80
2023/08/08 12:42:57;;;;;;;1.08;0.80;;;;;;;37.34;21.60;99887.78;10373247;28;96631;-81
2023/08/08 12:48:03;;;;;;;1.10;0.88;;;;;;;37.32;22.37;99882.56;10372810;28;97803;-80
2023/08/08 12:53:12;;;;;;;1.10;0.80;;;;;;;37.75;21.30;99877.44;10372592;28;97014;-82
2023/08/08 12:58:16;;;;;;;1.38;0.80;;;;;;;37.95;20.97;99873.44;10373655;28;96794;-81
2023/08/08 13:03:20;;;;;;;2.33;1.00;;;;;;;38.37;21.62;99861.81;10373111;28;97679;-81
2023/08/08 13:08:26;;;;;;;1.77;1.02;;;;;;;38.09;21.54;99845.41;10372476;28;96982;-81
2023/08/08 13:13:35;;;;;;;2.97;1.40;;;;;;;38.47;20.71;99845.53;10372899;28;97051;-81
2023/08/08 13:18:40;;;;;;;2.30;1.27;;;;;;;38.37;20.99;99837.09;10400669;28;96764;-81
2023/08/08 13:23:53;;;;;;;2.20;1.20;;;;;;;38.26;21.22;99837.16;10413569;28;96831;-82
2023/08/08 13:28:58;;;;;;;2.45;1.75;;;;;;;38.46;21.16;99823.75;10413155;28;97111;-81
2023/08/08 13:34:01;;;;;;;2.50;1.90;;;;;;;38.84;20.35;99812.78;10371852;28;96673;-82
2023/08/08 13:39:06;;;;;;;2.50;1.80;;;;;;;39.00;20.80;99808.31;10371252;28;96788;-82
2023/08/08 13:44:09;;;;;;;2.72;1.80;;;;;;;39.27;21.02;99810.06;10370614;28;97644;-82
2023/08/08 13:49:12;;;;;;;2.30;1.75;;;;;;;39.08;20.80;99808.72;10371488;28;96864;-81
2023/08/08 13:54:20;;;;;;;2.78;1.40;;;;;;;39.45;20.58;99807.00;10370771;28;97418;-81
2023/08/08 13:59:23;;;;;;;3.17;1.55;;;;;;;39.17;20.70;99796.19;10370905;28;96657;-82
2023/08/08 14:04:26;;;;;;;3.00;1.40;;;;;;;39.62;20.66;99795.91;10371655;28;97573;-81
2023/08/08 14:09:32;;;;;;;1.40;1.20;;;;;;;39.85;20.53;99793.69;10370624;28;96675;-81
2023/08/08 14:14:35;;;;;;;2.00;1.20;;;;;;;40.07;20.11;99795.56;10370586;28;96780;-82
2023/08/08 14:19:38;;;;;;;2.63;2.28;;;;;;;39.97;20.20;99789.91;10408165;28;96684;-81
2023/08/08 14:24:46;;;;;;;4.53;3.55;;;;;;;39.59;21.49;99788.13;10372051;28;96958;-81
2023/08/08 14:29:49;;;;;;;5.32;4.13;;;;;;;38.93;23.72;99783.75;10370316;28;98252;-81
2023/08/08 14:34:53;;;;;;;4.85;3.88;;;;;;;38.89;24.16;99799.09;10369394;28;96789;-81
2023/08/08 14:39:59;;;;;;;4.70;4.10;;;;;;;38.41;25.82;99796.16;10394934;28;96810;-81
2023/08/08 14:45:02;;;;;;;5.50;4.35;;;;;;;38.46;26.03;99797.09;10411772;28;96685;-81
2023/08/08 14:50:08;;;;;;;5.07;3.80;;;;;;;38.07;27.12;99798.06;10411659;28;97912;-81
2023/08/08 14:55:13;;;;;;;5.35;3.97;;;;;;;37.82;27.67;99802.31;10399537;28;96638;-81
2023/08/08 15:00:17;;;;;;;5.38;4.18;;;;;;;38.02;27.73;99810.91;10369919;28;97216;-81
2023/08/08 15:05:24;;;;;;;6.32;3.72;;;;;;;37.81;28.22;99811.63;10372985;28;96632;-81
2023/08/08 15:10:32;;;;;;;5.43;4.22;;;;;;;37.39;28.44;99808.31;10377407;28;96902;-80
2023/08/08 15:15:38;;;;;;;4.72;3.42;;;;;;;37.66;28.55;99823.13;10380931;28;98239;-81
2023/08/08 15:20:50;;;;;;;5.00;3.65;;;;;;;37.24;29.81;99824.44;10417209;28;96673;-81
2023/08/08 15:25:55;;;;;;;5.82;3.47;;;;;;;37.09;30.23;99835.94;10416166;28;97560;-81
2023/08/08 15:30:58;;;;;;;4.55;4.00;;;;;;;37.14;30.18;99832.47;10391007;28;96731;-81
2023/08/08 15:36:01;;;;;;;4.60;3.63;;;;;;;37.29;29.64;99836.38;10376078;28;97883;-81
2023/08/08 15:41:06;;;;;;;6.25;3.67;;;;;;;37.18;30.13;99845.47;10375614;28;97634;-81
2023/08/08 15:46:09;;;;;;;5.90;3.65;;;;;;;36.76;31.23;99840.38;10376342;28;96942;-81
2023/08/08 15:51:13;;;;;;;4.20;3.10;;;;;;;36.82;31.10;99853.97;10375325;28;97627;-81
2023/08/08 15:56:20;;;;;;;4.53;3.45;;;;;;;36.70;31.55;99851.22;10375287;28;96722;-81
2023/08/08 16:01:24;;;;;;;4.32;3.20;;;;;;;36.45;31.86;99867.06;10375643;28;96706;-81
2023/08/08 16:06:32;;;;;;;6.72;3.70;;;;;;;36.22;31.79;99874.41;10375385;28;97493;-81
2023/08/08 16:11:37;;;;;;;5.72;3.67;;;;;;;36.11;31.80;99887.00;10374608;28;96661;-81
2023/08/08 16:16:40;;;;;;;5.43;4.10;;;;;;;36.14;31.31;99892.00;10384651;28;96765;-80
2023/08/08 16:21:45;;;;;;;6.50;3.72;;;;;;;35.95;31.77;99895.03;10391532;28;96715;-81
2023/08/08 16:26:50;;;;;;;4.97;3.47;;;;;;;35.74;32.40;99896.34;10374224;28;97299;-80
2023/08/08 16:31:55;;;;;;;6.55;3.85;;;;;;;35.75;33.00;99906.25;10373713;28;97961;-81
2023/08/08 16:37:00;;;;;;;5.53;3.35;;;;;;;35.56;32.89;99910.88;10374324;28;96643;-81
2023/08/08 16:42:08;;;;;;;5.53;3.45;;;;;;;35.48;33.14;99911.22;10373905;28;96725;-80
2023/08/08 16:47:14;;;;;;;4.30;3.72;;;;;;;35.39;32.98;99912.53;10373974;28;96643;-81
2023/08/08 16:52:17;;;;;;;5.35;3.50;;;;;;;35.26;33.48;99920.94;10374090;28;96650;-81
2023/08/08 16:57:22;;;;;;;5.88;3.40;;;;;;;35.06;33.83;99922.22;10373502;28;96813;-80
2023/08/08 17:02:25;;;;;;;5.13;3.10;;;;;;;34.81;34.68;99926.81;10372272;28;96705;-81
2023/08/08 17:07:29;;;;;;;4.03;3.10;;;;;;;34.72;35.18;99947.31;10372207;28;97698;-80
2023/08/08 17:12:34;;;;;;;4.53;2.88;;;;;;;34.25;37.19;99946.78;10373263;28;96713;-81
2023/08/08 17:17:37;;;;;;;5.05;2.88;;;;;;;33.88;37.94;99953.09;10392879;28;96897;-81
2023/08/08 17:22:42;;;;;;;3.88;2.60;;;;;;;33.58;39.15;99953.81;10413423;28;96689;-80
2023/08/08 17:27:47;;;;;;;2.83;2.42;;;;;;;33.11;40.99;99964.00;10404317;27;97059;-81
2023/08/08 17:32:50;;;;;;;4.53;2.75;;;;;;;33.12;41.05;99964.84;10372151;28;96722;-80
2023/08/08 17:37:53;;;;;;;3.58;2.72;;;;;;;32.80;41.79;99971.97;10378675;28;97603;-80
2023/08/08 17:43:00;;;;;;;4.35;3.00;;;;;;;32.53;42.68;99966.72;10414017;28;96886;-81
2023/08/08 17:48:07;;;;;;;4.07;3.08;;;;;;;32.62;42.40;99970.94;10377532;28;96688;-81
2023/08/08 17:53:13;;;;;;;7.28;3.10;;;;;;;32.42;42.87;99970.91;10371758;28;96646;-80
2023/08/08 17:58:19;;;;;;;5.38;3.33;;;;;;;32.24;43.71;99974.19;10370388;28;96752;-80
2023/08/08 18:03:23;;;;;;;5.43;3.30;;;;;;;32.24;43.38;99974.19;10371662;28;96750;-80
2023/08/08 18:08:28;;;;;;;4.43;3.28;;;;;;;31.82;44.41;99984.53;10371393;28;97818;-81
2023/08/08 18:13:34;;;;;;;4.22;3.30;;;;;;;31.94;44.08;99988.34;10370295;28;96799;-81
2023/08/08 18:18:40;;;;;;;4.97;3.72;;;;;;;31.69;44.56;99989.88;10392677;28;96747;-81
2023/08/08 18:23:43;;;;;;;4.57;3.03;;;;;;;31.54;45.20;100000.06;10370520;28;96933;-81
2023/08/08 18:28:49;;;;;;;3.78;2.83;;;;;;;31.51;45.25;100003.19;10370258;28;97107;-80
2023/08/08 18:33:58;;;;;;;4.97;3.05;;;;;;;31.47;45.14;100013.63;10371449;28;96777;-80
2023/08/08 18:39:03;;;;;;;5.40;3.30;;;;;;;31.38;44.96;100024.84;10372687;28;97752;-80
2023/08/08 18:44:08;;;;;;;4.28;3.72;;;;;;;31.07;45.52;100034.22;10377229;28;96689;-80
2023/08/08 18:49:12;;;;;;;5.80;3.55;;;;;;;30.96;46.32;100036.63;10376185;28;96675;-80
2023/08/08 18:54:16;;;;;;;5.25;3.60;;;;;;;30.95;46.16;100043.97;10377577;28;96754;-80
2023/08/08 18:59:21;;;;;;;5.18;3.53;;;;;;;30.92;46.23;100038.91;10376542;28;96729;-81
2023/08/08 19:04:26;;;;;;;5.60;3.58;;;;;;;30.61;46.84;100041.09;10376827;28;96666;-81
2023/08/08 19:09:31;;;;;;;5.68;3.40;;;;;;;30.52;47.09;100050.41;10376923;28;97261;-81
2023/08/08 19:14:37;;;;;;;6.97;3.80;;;;;;;30.48;47.33;100051.81;10376560;28;97005;-80
2023/08/08 19:19:41;;;;;;;6.75;3.60;;;;;;;30.54;47.23;100058.38;10413408;28;96859;-80
2023/08/08 19:24:47;;;;;;;;;;;;;;;30.36;48.55;100066.09;10418739;28;96672;-80
2023/08/08 19:29:53;;;;;;;5.03;3.38;;;;;;;30.15;47.95;100070.47;10383416;28;96940;-80
2023/08/08 19:34:57;;;;;;;7.15;3.75;;;;;;;30.05;48.22;100056.31;10375451;28;96779;-80
2023/08/08 19:40:00;;;;;;;5.22;3.40;;;;;;;30.01;48.48;100074.00;10374476;28;96657;-80
2023/08/08 19:45:06;;;;;;;4.93;3.55;;;;;;;29.76;49.24;100082.63;10375830;28;96779;-80
2023/08/08 19:50:12;;;;;;;4.68;3.53;;;;;;;29.59;49.64;100076.53;10415056;22;97722;-80
2023/08/08 19:55:15;;;;;;;7.20;3.95;;;;;;;29.56;49.67;100079.63;10416681;28;96625;-80
2023/08/08 20:00:20;;;;;;;6.13;4.35;;;;;;;29.47;50.17;100096.16;10412167;28;97143;-79
2023/08/08 20:05:25;;;;;;;6.55;4.32;;;;;;;29.32;50.39;100092.56;10374892;28;96967;-80
2023/08/08 20:10:28;;;;;;;5.38;3.72;;;;;;;29.24;50.37;100098.91;10374269;28;96757;-80
2023/08/08 20:15:33;;;;;;;6.13;3.70;;;;;;;29.26;50.43;100098.72;10378264;28;96955;-80
2023/08/08 20:20:38;;;;;;;5.43;3.75;;;;;;;29.12;50.87;100114.75;10414714;28;96656;-80
2023/08/08 20:25:41;;;;;;;7.32;4.43;;;;;;;29.08;51.14;100113.47;10415707;28;96658;-79
2023/08/08 20:30:47;;;;;;;7.13;3.95;;;;;;;28.86;51.53;100119.66;10414202;28;96566;-80
2023/08/08 20:35:51;;;;;;;6.85;4.32;;;;;;;28.89;51.65;100123.91;10414254;28;96771;-80
2023/08/08 20:40:56;;;;;;;5.97;4.22;;;;;;;28.90;51.50;100136.41;10414388;28;96766;-80
2023/08/08 20:46:01;;;;;;;7.20;4.20;;;;;;;28.87;51.75;100137.63;10414651;28;96784;-80
2023/08/08 20:51:04;;;;;;;5.82;4.13;;;;;;;28.86;51.64;100145.94;10373913;28;96683;-80
2023/08/08 20:56:08;;;;;;;5.90;4.32;;;;;;;28.83;51.49;100144.41;10372738;28;97591;-80
2023/08/08 21:01:13;;;;;;;6.53;4.70;;;;;;;28.86;51.82;100146.75;10373367;28;96654;-80
2023/08/08 21:06:16;;;;;;;6.50;3.88;;;;;;;28.64;52.42;100153.00;10373399;28;96667;-80
2023/08/08 21:11:20;;;;;;;7.45;4.13;;;;;;;28.48;52.85;100158.50;10372924;28;96730;-80
2023/08/08 21:16:24;;;;;;;5.80;4.03;;;;;;;28.51;52.67;100151.91;10372354;28;98187;-80
2023/08/08 21:21:28;;;;;;;5.43;4.07;;;;;;;28.35;53.18;100150.13;10407612;28;97754;-80
2023/08/08 21:26:32;;;;;;;6.38;4.22;;;;;;;28.18;53.54;100153.88;10412684;28;96805;-80
2023/08/08 21:31:42;;;;;;;6.03;4.38;;;;;;;27.86;54.49;100159.38;10413090;28;96693;-80
2023/08/08 21:36:48;;;;;;;7.88;4.68;;;;;;;27.82;54.60;100161.59;10413110;28;96650;-80
2023/08/08 21:41:51;;;;;;;7.00;4.45;;;;;;;27.72;54.80;100155.53;10412138;28;96705;-80
2023/08/08 21:46:56;;;;;;;6.38;4.35;;;;;;;27.86;54.78;100162.94;10412398;28;97749;-80
2023/08/08 21:52:00;;;;;;;7.40;4.70;;;;;;;27.91;54.75;100159.72;10412981;28;97276;-80
2023/08/08 21:57:03;;;;;;;9.15;4.28;;;;;;;27.74;55.31;100166.19;10413790;28;96769;-80
2023/08/08 22:02:10;;;;;;;6.50;4.50;;;;;;;27.78;55.28;100159.41;10385098;27;97021;-80
2023/08/08 22:07:13;;;;;;;6.95;4.38;;;;;;;27.81;54.60;100156.38;10370891;28;97336;-80
2023/08/08 22:12:17;;;;;;;7.20;4.88;;;;;;;27.74;55.19;100158.06;10369935;28;96931;-80
2023/08/08 22:17:22;;;;;;;7.03;4.68;;;;;;;27.51;55.86;100149.78;10379298;28;96745;-80
2023/08/08 22:22:25;;;;;;;8.20;4.95;;;;;;;27.52;55.52;100146.09;10419603;28;96874;-80
2023/08/08 22:27:28;;;;;;;6.50;4.80;;;;;;;27.58;55.68;100139.97;10419359;28;97175;-80
2023/08/08 22:32:33;;;;;;;6.20;4.50;;;;;;;27.54;55.77;100143.22;10419437;28;97740;-80
2023/08/08 22:37:37;;;;;;;7.65;5.07;;;;;;;27.06;56.73;100135.97;10378965;28;96811;-80
2023/08/08 22:42:41;;;;;;;7.15;4.25;;;;;;;27.01;57.17;100136.44;10377314;28;96641;-80
2023/08/08 22:47:46;;;;;;;5.78;4.45;;;;;;;27.09;56.79;100132.94;10378615;28;97504;-80
2023/08/08 22:52:49;;;;;;;7.88;5.20;;;;;;;27.11;56.98;100128.22;10393334;28;97099;-80
2023/08/08 22:57:53;;;;;;;;;;;;;;;27.16;57.31;100133.09;10377167;28;96864;-80
2023/08/08 23:03:00;;;;;;;6.97;4.70;;;;;;;27.32;55.76;100133.94;10375732;28;96705;-80
2023/08/08 23:08:09;;;;;;;6.15;4.13;;;;;;;27.34;56.31;100133.78;10377208;28;96904;-80
2023/08/08 23:13:13;;;;;;;7.57;4.78;;;;;;;27.12;56.85;100129.03;10376286;28;96723;-80
2023/08/08 23:18:18;;;;;;;8.13;5.20;;;;;;;27.28;56.56;100129.06;10385613;28;96896;-80
2023/08/08 23:23:23;;;;;;;7.97;5.38;;;;;;;27.05;57.00;100125.31;10417702;28;97297;-80
2023/08/08 23:28:26;;;;;;;8.95;5.72;;;;;;;26.84;57.29;100117.69;10416611;27;96708;-80
2023/08/08 23:33:31;;;;;;;7.68;5.15;;;;;;;26.70;57.99;100127.28;10417524;28;97734;-80
2023/08/08 23:38:34;;;;;;;8.68;5.95;;;;;;;26.72;58.00;100133.38;10407765;28;98285;-80